createdAt,value
2017-04-10T00:01:04.306Z,0
2017-04-10T00:02:16.558Z,0
2017-04-10T00:03:29.099Z,0
2017-04-10T00:04:41.619Z,0
2017-04-10T00:05:54.139Z,0
2017-04-10T00:07:06.662Z,0
2017-04-10T00:08:19.499Z,0
2017-04-10T00:09:31.703Z,0
2017-04-10T00:10:44.316Z,0
2017-04-10T00:11:56.847Z,0
2017-04-10T00:13:09.390Z,0
2017-04-10T00:14:21.917Z,0
2017-04-10T00:15:34.429Z,0
2017-04-10T00:16:46.952Z,0
2017-04-10T00:17:59.470Z,0
2017-04-10T00:19:12.219Z,0
2017-04-10T00:20:24.721Z,0
2017-04-10T00:21:37.259Z,0
2017-04-10T00:22:49.808Z,0
2017-04-10T00:24:02.043Z,0
2017-04-10T00:25:14.296Z,0
2017-04-10T00:26:26.817Z,0
2017-04-10T00:27:39.338Z,0
2017-04-10T00:28:51.551Z,0
2017-04-10T00:30:04.384Z,0
2017-04-10T00:31:16.646Z,0
2017-04-10T00:32:29.200Z,0
2017-04-10T00:33:41.742Z,0
2017-04-10T00:34:54.270Z,0
2017-04-10T00:36:06.809Z,0
2017-04-10T00:37:19.011Z,0
2017-04-10T00:38:31.527Z,0
2017-04-10T00:39:44.092Z,0
2017-04-10T00:40:56.936Z,0
2017-04-10T00:42:09.492Z,0
2017-04-10T00:43:22.061Z,0
2017-04-10T00:44:34.607Z,0
2017-04-10T00:45:47.144Z,0
2017-04-10T00:46:59.651Z,0
2017-04-10T00:48:11.895Z,0
2017-04-10T00:49:24.167Z,0
2017-04-10T00:50:36.411Z,0
2017-04-10T00:51:48.330Z,0
2017-04-10T00:53:00.845Z,0
2017-04-10T00:54:13.369Z,0
2017-04-10T00:55:25.869Z,0
2017-04-10T00:56:38.417Z,0
2017-04-10T00:57:50.637Z,0
2017-04-10T00:59:03.148Z,0
2017-04-10T01:00:15.359Z,0
2017-04-10T01:01:27.904Z,0
2017-04-10T01:02:40.736Z,0
2017-04-10T01:03:53.040Z,0
2017-04-10T01:05:05.589Z,0
2017-04-10T01:06:18.107Z,0
2017-04-10T01:07:30.649Z,0
2017-04-10T01:08:43.173Z,0
2017-04-10T01:09:55.696Z,0
2017-04-10T01:11:08.241Z,0
2017-04-10T01:12:20.788Z,0
2017-04-10T01:13:33.582Z,0
2017-04-10T01:14:45.781Z,0
2017-04-10T01:15:58.341Z,0
2017-04-10T01:17:10.870Z,0
2017-04-10T01:18:23.420Z,0
2017-04-10T01:19:35.941Z,0
2017-04-10T01:20:48.175Z,0
2017-04-10T01:22:00.706Z,0
2017-04-10T01:23:12.616Z,0
2017-04-10T01:24:25.187Z,0
2017-04-10T01:25:37.708Z,0
2017-04-10T01:26:50.262Z,0
2017-04-10T01:28:02.483Z,0
2017-04-10T01:29:15.046Z,0
2017-04-10T01:30:27.842Z,0
2017-04-10T01:31:40.413Z,0
2017-04-10T01:32:52.987Z,0
2017-04-10T01:34:05.487Z,0
2017-04-10T01:35:18.037Z,0
2017-04-10T01:36:30.251Z,0
2017-04-10T01:37:42.775Z,0
2017-04-10T01:38:55.323Z,0
2017-04-10T01:40:07.520Z,0
2017-04-10T01:41:20.018Z,0
2017-04-10T01:42:32.251Z,0
2017-04-10T01:43:44.760Z,0
2017-04-10T01:44:57.260Z,0
2017-04-10T01:46:10.050Z,0
2017-04-10T01:47:22.268Z,0
2017-04-10T01:48:34.809Z,0
2017-04-10T01:49:47.334Z,0
2017-04-10T01:50:59.901Z,0
2017-04-10T01:52:12.744Z,0
2017-04-10T01:53:25.293Z,0
2017-04-10T01:54:37.819Z,0
2017-04-10T01:55:50.339Z,0
2017-04-10T01:57:02.862Z,0
2017-04-10T01:58:15.373Z,0
2017-04-10T01:59:27.919Z,0
2017-04-10T02:00:40.140Z,0
2017-04-10T02:01:52.649Z,0
2017-04-10T02:03:05.159Z,0
2017-04-10T02:04:17.710Z,0
2017-04-10T02:05:30.234Z,0
2017-04-10T02:06:42.172Z,0
2017-04-10T02:07:54.673Z,0
2017-04-10T02:09:07.172Z,0
2017-04-10T02:10:19.718Z,0
2017-04-10T02:11:32.263Z,0
2017-04-10T02:12:44.784Z,0
2017-04-10T02:13:57.602Z,0
2017-04-10T02:15:09.832Z,0
2017-04-10T02:16:22.070Z,0
2017-04-10T02:17:34.591Z,0
2017-04-10T02:18:47.109Z,0
2017-04-10T02:19:59.650Z,0
2017-04-10T02:21:12.153Z,0
2017-04-10T02:22:24.399Z,0
2017-04-10T02:23:36.625Z,0
2017-04-10T02:24:49.158Z,0
2017-04-10T02:26:01.708Z,0
2017-04-10T02:27:14.226Z,0
2017-04-10T02:28:26.453Z,0
2017-04-10T02:29:38.979Z,0
2017-04-10T02:30:51.224Z,0
2017-04-10T02:32:03.770Z,0
2017-04-10T02:33:16.312Z,0
2017-04-10T02:34:28.833Z,0
2017-04-10T02:35:41.059Z,0
2017-04-10T02:36:53.280Z,0
2017-04-10T02:38:05.813Z,0
2017-04-10T02:39:18.345Z,0
2017-04-10T02:40:30.879Z,0
2017-04-10T02:41:43.429Z,0
2017-04-10T02:42:55.972Z,0
2017-04-10T02:44:08.197Z,0
2017-04-10T02:45:20.722Z,0
2017-04-10T02:46:32.917Z,0
2017-04-10T02:47:45.414Z,0
2017-04-10T02:48:57.961Z,0
2017-04-10T02:50:10.472Z,0
2017-04-10T02:51:23.001Z,0
2017-04-10T02:52:35.502Z,0
2017-04-10T02:53:48.036Z,0
2017-04-10T02:55:00.589Z,0
2017-04-10T02:56:13.109Z,0
2017-04-10T02:57:25.640Z,0
2017-04-10T02:58:38.181Z,0
2017-04-10T02:59:50.700Z,0
2017-04-10T03:01:03.217Z,0
2017-04-10T03:02:15.134Z,0
2017-04-10T03:03:27.635Z,0
2017-04-10T03:04:40.160Z,0
2017-04-10T03:05:52.706Z,0
2017-04-10T03:07:04.948Z,0
2017-04-10T03:08:17.503Z,0
2017-04-10T03:09:30.041Z,0
2017-04-10T03:10:42.589Z,0
2017-04-10T03:11:54.827Z,0
2017-04-10T03:13:07.352Z,0
2017-04-10T03:14:19.274Z,0
2017-04-10T03:15:31.491Z,0
2017-04-10T03:16:44.016Z,0
2017-04-10T03:17:56.515Z,0
2017-04-10T03:19:08.760Z,0
2017-04-10T03:20:21.280Z,0
2017-04-10T03:21:33.799Z,0
2017-04-10T03:22:45.741Z,0
2017-04-10T03:23:58.565Z,0
2017-04-10T03:25:11.086Z,0
2017-04-10T03:26:23.624Z,0
2017-04-10T03:27:35.854Z,0
2017-04-10T03:28:48.083Z,0
2017-04-10T03:30:00.615Z,0
2017-04-10T03:31:12.841Z,0
2017-04-10T03:32:25.065Z,0
2017-04-10T03:33:37.283Z,0
2017-04-10T03:34:49.503Z,0
2017-04-10T03:36:02.046Z,0
2017-04-10T03:37:14.599Z,0
2017-04-10T03:38:27.137Z,0
2017-04-10T03:39:39.662Z,0
2017-04-10T03:40:52.226Z,0
2017-04-10T03:42:04.732Z,0
2017-04-10T03:43:16.679Z,0
2017-04-10T03:44:29.225Z,4
2017-04-10T03:45:41.717Z,0
2017-04-10T03:46:54.233Z,0
2017-04-10T03:48:06.760Z,4
2017-04-10T03:49:18.979Z,4
2017-04-10T03:50:31.505Z,8
2017-04-10T03:51:43.721Z,8
2017-04-10T03:52:56.242Z,8
2017-04-10T03:54:08.767Z,8
2017-04-10T03:55:21.284Z,12
2017-04-10T03:56:33.505Z,12
2017-04-10T03:57:46.023Z,16
2017-04-10T03:58:58.575Z,20
2017-04-10T04:00:11.138Z,24
2017-04-10T04:01:23.663Z,32
2017-04-10T04:02:36.186Z,36
2017-04-10T04:03:48.405Z,44
2017-04-10T04:05:00.929Z,52
2017-04-10T04:06:13.464Z,60
2017-04-10T04:07:26.290Z,72
2017-04-10T04:08:38.843Z,88
2017-04-10T04:09:51.369Z,104
2017-04-10T04:11:03.911Z,120
2017-04-10T04:12:16.126Z,140
2017-04-10T04:13:28.651Z,160
2017-04-10T04:14:41.215Z,184
2017-04-10T04:15:53.715Z,208
2017-04-10T04:17:06.213Z,236
2017-04-10T04:18:18.731Z,264
2017-04-10T04:19:31.257Z,296
2017-04-10T04:20:43.498Z,332
2017-04-10T04:21:56.049Z,368
2017-04-10T04:23:08.583Z,408
2017-04-10T04:24:21.136Z,448
2017-04-10T04:25:33.656Z,492
2017-04-10T04:26:46.202Z,536
2017-04-10T04:27:58.727Z,588
2017-04-10T04:29:11.251Z,640
2017-04-10T04:30:23.761Z,696
2017-04-10T04:31:35.992Z,748
2017-04-10T04:32:48.574Z,804
2017-04-10T04:34:00.808Z,868
2017-04-10T04:35:13.353Z,928
2017-04-10T04:36:25.888Z,992
2017-04-10T04:37:38.419Z,1052
2017-04-10T04:38:50.638Z,1120
2017-04-10T04:40:03.450Z,1188
2017-04-10T04:41:15.978Z,1256
2017-04-10T04:42:28.477Z,1328
2017-04-10T04:43:41.025Z,1396
2017-04-10T04:44:53.570Z,1472
2017-04-10T04:46:06.113Z,1540
2017-04-10T04:47:18.633Z,1620
2017-04-10T04:48:31.130Z,1688
2017-04-10T04:49:43.651Z,1764
2017-04-10T04:50:56.425Z,1832
2017-04-10T04:52:08.985Z,1904
2017-04-10T04:53:21.212Z,1980
2017-04-10T04:54:33.734Z,2044
2017-04-10T04:55:45.938Z,2108
2017-04-10T04:56:58.492Z,2188
2017-04-10T04:58:11.039Z,2268
2017-04-10T04:59:23.545Z,2340
2017-04-10T05:00:36.088Z,2412
2017-04-10T05:01:48.854Z,2484
2017-04-10T05:03:01.405Z,2564
2017-04-10T05:04:13.971Z,2640
2017-04-10T05:05:26.178Z,2712
2017-04-10T05:06:38.714Z,2788
2017-04-10T05:07:51.234Z,2856
2017-04-10T05:09:03.737Z,2940
2017-04-10T05:10:16.247Z,2984
2017-04-10T05:11:28.797Z,3072
2017-04-10T05:12:41.602Z,3112
2017-04-10T05:13:54.161Z,3188
2017-04-10T05:15:06.692Z,3244
2017-04-10T05:16:19.235Z,3312
2017-04-10T05:17:31.760Z,3360
2017-04-10T05:18:44.252Z,3436
2017-04-10T05:19:56.473Z,3492
2017-04-10T05:21:08.997Z,3548
2017-04-10T05:22:21.543Z,3608
2017-04-10T05:23:34.330Z,3680
2017-04-10T05:24:46.857Z,3736
2017-04-10T05:25:59.377Z,3764
2017-04-10T05:27:11.623Z,3828
2017-04-10T05:28:24.139Z,3924
2017-04-10T05:29:36.382Z,3960
2017-04-10T05:30:48.893Z,4028
2017-04-10T05:32:01.135Z,4100
2017-04-10T05:33:13.076Z,4152
2017-04-10T05:34:25.302Z,4232
2017-04-10T05:35:37.842Z,4284
2017-04-10T05:36:50.391Z,4316
2017-04-10T05:38:02.918Z,4352
2017-04-10T05:39:15.449Z,4416
2017-04-10T05:40:27.982Z,4428
2017-04-10T05:41:40.541Z,4472
2017-04-10T05:42:53.044Z,4520
2017-04-10T05:44:05.567Z,4600
2017-04-10T05:45:17.787Z,4688
2017-04-10T05:46:30.311Z,4728
2017-04-10T05:47:42.870Z,4840
2017-04-10T05:48:55.399Z,4856
2017-04-10T05:50:07.949Z,4924
2017-04-10T05:51:20.198Z,5008
2017-04-10T05:52:32.730Z,5048
2017-04-10T05:53:45.261Z,5108
2017-04-10T05:54:57.783Z,5136
2017-04-10T05:56:10.316Z,5128
2017-04-10T05:57:22.538Z,5292
2017-04-10T05:58:34.759Z,5172
2017-04-10T05:59:46.980Z,5340
2017-04-10T06:00:59.538Z,5340
2017-04-10T06:02:12.080Z,5556
2017-04-10T06:03:24.577Z,5568
2017-04-10T06:04:37.096Z,6620
2017-04-10T06:05:49.620Z,8956
2017-04-10T06:07:02.142Z,10340
2017-04-10T06:08:14.387Z,7180
2017-04-10T06:09:26.625Z,6608
2017-04-10T06:10:38.868Z,6412
2017-04-10T06:11:51.413Z,6512
2017-04-10T06:13:03.971Z,6300
2017-04-10T06:14:16.513Z,6484
2017-04-10T06:15:29.041Z,6360
2017-04-10T06:16:41.280Z,6308
2017-04-10T06:17:54.056Z,6852
2017-04-10T06:19:06.600Z,8180
2017-04-10T06:20:19.147Z,9052
2017-04-10T06:21:31.370Z,7804
2017-04-10T06:22:43.602Z,7940
2017-04-10T06:23:56.159Z,7188
2017-04-10T06:25:08.381Z,7072
2017-04-10T06:26:20.901Z,7204
2017-04-10T06:27:33.444Z,7360
2017-04-10T06:28:45.664Z,7812
2017-04-10T06:29:58.185Z,9232
2017-04-10T06:31:10.411Z,12548
2017-04-10T06:32:22.938Z,14296
2017-04-10T06:33:35.478Z,17312
2017-04-10T06:34:48.000Z,17152
2017-04-10T06:36:00.511Z,18048
2017-04-10T06:37:12.762Z,15376
2017-04-10T06:38:25.300Z,17600
2017-04-10T06:39:37.536Z,19872
2017-04-10T06:40:49.795Z,20288
2017-04-10T06:42:02.019Z,18144
2017-04-10T06:43:14.544Z,16704
2017-04-10T06:44:27.090Z,19616
2017-04-10T06:45:39.624Z,21760
2017-04-10T06:46:52.206Z,23680
2017-04-10T06:48:04.745Z,24544
2017-04-10T06:49:17.300Z,27040
2017-04-10T06:50:29.834Z,29248
2017-04-10T06:51:42.361Z,29504
2017-04-10T06:52:54.909Z,26560
2017-04-10T06:54:07.147Z,28096
2017-04-10T06:55:19.675Z,30304
2017-04-10T06:56:32.195Z,31072
2017-04-10T06:57:44.716Z,30688
2017-04-10T06:58:57.262Z,31776
2017-04-10T07:00:09.784Z,32704
2017-04-10T07:01:22.333Z,34176
2017-04-10T07:02:34.870Z,28448
2017-04-10T07:03:47.373Z,23040
2017-04-10T07:04:59.617Z,20096
2017-04-10T07:06:12.184Z,22944
2017-04-10T07:07:24.736Z,18080
2017-04-10T07:08:36.982Z,14784
2017-04-10T07:09:49.525Z,13940
2017-04-10T07:11:02.042Z,12408
2017-04-10T07:12:14.592Z,13008
2017-04-10T07:13:27.141Z,16656
2017-04-10T07:14:39.359Z,16892
2017-04-10T07:15:51.884Z,18112
2017-04-10T07:17:04.401Z,15644
2017-04-10T07:18:16.643Z,17120
2017-04-10T07:19:28.871Z,18688
2017-04-10T07:20:41.414Z,23392
2017-04-10T07:21:53.955Z,18880
2017-04-10T07:23:06.730Z,17600
2017-04-10T07:24:18.656Z,16484
2017-04-10T07:25:31.194Z,27776
2017-04-10T07:26:43.739Z,23456
2017-04-10T07:27:56.292Z,19744
2017-04-10T07:29:08.864Z,16020
2017-04-10T07:30:21.424Z,14940
2017-04-10T07:31:33.980Z,15440
2017-04-10T07:32:46.526Z,15400
2017-04-10T07:33:59.060Z,15212
2017-04-10T07:35:11.607Z,14944
2017-04-10T07:36:24.120Z,14836
2017-04-10T07:37:36.677Z,14864
2017-04-10T07:38:49.180Z,14820
2017-04-10T07:40:01.443Z,14756
2017-04-10T07:41:13.711Z,14872
2017-04-10T07:42:26.289Z,14904
2017-04-10T07:43:38.836Z,14864
2017-04-10T07:44:51.361Z,15004
2017-04-10T07:46:03.928Z,15044
2017-04-10T07:47:16.453Z,15148
2017-04-10T07:48:28.669Z,15324
2017-04-10T07:49:41.165Z,15412
2017-04-10T07:50:53.692Z,15540
2017-04-10T07:52:05.657Z,15900
2017-04-10T07:53:18.203Z,16728
2017-04-10T07:54:29.827Z,20768
2017-04-10T07:55:42.420Z,31520
2017-04-10T07:56:54.966Z,22880
2017-04-10T07:58:07.515Z,10116
2017-04-10T07:59:20.061Z,9876
2017-04-10T08:00:32.608Z,9868
2017-04-10T08:01:44.878Z,9820
2017-04-10T08:02:57.448Z,9804
2017-04-10T08:04:09.995Z,9816
2017-04-10T08:05:22.558Z,9952
2017-04-10T08:06:35.090Z,10000
2017-04-10T08:07:47.657Z,10056
2017-04-10T08:09:00.199Z,10024
2017-04-10T08:10:12.121Z,10044
2017-04-10T08:11:24.635Z,10080
2017-04-10T08:12:36.868Z,10096
2017-04-10T08:13:49.118Z,10120
2017-04-10T08:15:01.656Z,10148
2017-04-10T08:16:13.894Z,10168
2017-04-10T08:17:26.463Z,10120
2017-04-10T08:18:39.011Z,10108
2017-04-10T08:19:50.938Z,10176
2017-04-10T08:21:03.159Z,10300
2017-04-10T08:22:15.683Z,10452
2017-04-10T08:23:28.228Z,10328
2017-04-10T08:24:40.750Z,10332
2017-04-10T08:25:53.273Z,10420
2017-04-10T08:27:05.513Z,10424
2017-04-10T08:28:18.077Z,10428
2017-04-10T08:29:30.601Z,10456
2017-04-10T08:30:43.152Z,10404
2017-04-10T08:31:55.076Z,10352
2017-04-10T08:33:07.668Z,10256
2017-04-10T08:34:19.920Z,10332
2017-04-10T08:35:32.431Z,10364
2017-04-10T08:36:44.959Z,10280
2017-04-10T08:37:57.501Z,10292
2017-04-10T08:39:09.968Z,10348
2017-04-10T08:40:22.222Z,10336
2017-04-10T08:41:34.758Z,10264
2017-04-10T08:42:47.261Z,10128
2017-04-10T08:43:59.513Z,10040
2017-04-10T08:45:12.057Z,10056
2017-04-10T08:46:24.603Z,10080
2017-04-10T08:47:37.161Z,10040
2017-04-10T08:48:49.693Z,10024
2017-04-10T08:50:01.636Z,10088
2017-04-10T08:51:14.175Z,10068
2017-04-10T08:52:26.123Z,10184
2017-04-10T08:53:38.626Z,10148
2017-04-10T08:54:50.844Z,10188
2017-04-10T08:56:03.342Z,10268
2017-04-10T08:57:15.913Z,10224
2017-04-10T08:58:28.132Z,10220
2017-04-10T08:59:40.357Z,10220
2017-04-10T09:00:52.928Z,10096
2017-04-10T09:02:05.170Z,9972
2017-04-10T09:03:17.719Z,10000
2017-04-10T09:04:30.265Z,9948
2017-04-10T09:05:42.511Z,9948
2017-04-10T09:06:55.079Z,9992
2017-04-10T09:08:07.596Z,9892
2017-04-10T09:09:20.104Z,9960
2017-04-10T09:10:32.658Z,9980
2017-04-10T09:11:44.905Z,9896
2017-04-10T09:12:57.440Z,9916
2017-04-10T09:14:09.683Z,9944
2017-04-10T09:15:21.929Z,9968
2017-04-10T09:16:34.499Z,10056
2017-04-10T09:17:47.041Z,10064
2017-04-10T09:18:58.962Z,9976
2017-04-10T09:20:10.930Z,9904
2017-04-10T09:21:23.472Z,9896
2017-04-10T09:22:35.729Z,9856
2017-04-10T09:23:48.296Z,9888
2017-04-10T09:25:00.842Z,10008
2017-04-10T09:26:13.366Z,10028
2017-04-10T09:27:25.910Z,10112
2017-04-10T09:28:37.830Z,10160
2017-04-10T09:29:50.051Z,10176
2017-04-10T09:31:02.600Z,10176
2017-04-10T09:32:14.548Z,10292
2017-04-10T09:33:26.493Z,10516
2017-04-10T09:34:38.739Z,10628
2017-04-10T09:35:51.282Z,10884
2017-04-10T09:37:03.847Z,11020
2017-04-10T09:38:16.075Z,11176
2017-04-10T09:39:28.044Z,11328
2017-04-10T09:40:40.243Z,11536
2017-04-10T09:41:52.461Z,11424
2017-04-10T09:43:04.405Z,11636
2017-04-10T09:44:16.673Z,11888
2017-04-10T09:45:28.915Z,11968
2017-04-10T09:46:41.439Z,12388
2017-04-10T09:47:53.367Z,12664
2017-04-10T09:49:05.314Z,12644
2017-04-10T09:50:17.573Z,12884
2017-04-10T09:51:29.778Z,12972
2017-04-10T09:52:42.017Z,13164
2017-04-10T09:53:54.269Z,13456
2017-04-10T09:55:06.797Z,13368
2017-04-10T09:56:18.144Z,13264
2017-04-10T09:57:30.386Z,13356
2017-04-10T09:58:42.346Z,13712
2017-04-10T09:59:54.303Z,13816
2017-04-10T10:01:06.800Z,14468
2017-04-10T10:02:18.744Z,14812
2017-04-10T10:03:31.015Z,15072
2017-04-10T10:04:43.532Z,15316
2017-04-10T10:05:55.773Z,15748
2017-04-10T10:07:07.429Z,15940
2017-04-10T10:08:19.670Z,16280
2017-04-10T10:09:31.879Z,16152
2017-04-10T10:10:44.416Z,16488
2017-04-10T10:11:56.368Z,17720
2017-04-10T10:13:08.608Z,18688
2017-04-10T10:14:20.829Z,19680
2017-04-10T10:15:33.352Z,20128
2017-04-10T10:16:44.996Z,20736
2017-04-10T10:17:57.254Z,21056
2017-04-10T10:19:08.885Z,21312
2017-04-10T10:20:21.123Z,21696
2017-04-10T10:21:33.681Z,21344
2017-04-10T10:22:45.939Z,21056
2017-04-10T10:23:58.492Z,20672
2017-04-10T10:25:10.718Z,20064
2017-04-10T10:26:23.329Z,21792
2017-04-10T10:27:35.283Z,29632
2017-04-10T10:28:47.229Z,37184
2017-04-10T10:29:59.790Z,41856
2017-04-10T10:31:12.023Z,34240
2017-04-10T10:32:24.260Z,35424
2017-04-10T10:33:36.788Z,40480
2017-04-10T10:34:49.334Z,28928
2017-04-10T10:36:00.997Z,25280
2017-04-10T10:37:12.628Z,31520
2017-04-10T10:38:24.864Z,44448
2017-04-10T10:39:37.389Z,48736
2017-04-10T10:40:49.016Z,36448
2017-04-10T10:42:01.261Z,27552
2017-04-10T10:43:13.536Z,34656
2017-04-10T10:44:26.102Z,37504
2017-04-10T10:45:38.347Z,41472
2017-04-10T10:46:50.618Z,42208
2017-04-10T10:48:02.863Z,48896
2017-04-10T10:49:14.499Z,43008
2017-04-10T10:50:26.773Z,41344
2017-04-10T10:51:38.402Z,49152
2017-04-10T10:52:50.336Z,48928
2017-04-10T10:54:02.266Z,50976
2017-04-10T10:55:14.812Z,34048
2017-04-10T10:56:27.078Z,42336
2017-04-10T10:57:39.284Z,33376
2017-04-10T10:58:51.524Z,31456
2017-04-10T11:00:04.096Z,29888
2017-04-10T11:01:15.446Z,28544
2017-04-10T11:02:27.990Z,30880
2017-04-10T11:03:40.561Z,32352
2017-04-10T11:04:52.233Z,46592
2017-04-10T11:06:04.792Z,47264
2017-04-10T11:07:17.324Z,52224
2017-04-10T11:08:29.267Z,51168
2017-04-10T11:09:41.193Z,53120
2017-04-10T11:10:53.711Z,53760
2017-04-10T11:12:05.058Z,56512
2017-04-10T11:13:17.628Z,51808
2017-04-10T11:14:30.172Z,51424
2017-04-10T11:15:42.737Z,42176
2017-04-10T11:16:54.994Z,40064
2017-04-10T11:18:07.255Z,46560
2017-04-10T11:19:19.781Z,54752
2017-04-10T11:20:31.420Z,55264
2017-04-10T11:21:43.075Z,58592
2017-04-10T11:22:54.422Z,57024
2017-04-10T11:24:06.692Z,45248
2017-04-10T11:25:18.966Z,22624
2017-04-10T11:26:31.252Z,24736
2017-04-10T11:27:43.530Z,37760
2017-04-10T11:28:56.102Z,50016
2017-04-10T11:30:08.347Z,23072
2017-04-10T11:31:19.986Z,23648
2017-04-10T11:32:31.938Z,23616
2017-04-10T11:33:43.876Z,24672
2017-04-10T11:34:56.445Z,25824
2017-04-10T11:36:08.743Z,26400
2017-04-10T11:37:20.701Z,28544
2017-04-10T11:38:32.640Z,61280
2017-04-10T11:39:45.180Z,27744
2017-04-10T11:40:57.460Z,31552
2017-04-10T11:42:09.732Z,28192
2017-04-10T11:43:22.302Z,46560
2017-04-10T11:44:34.549Z,31104
2017-04-10T11:45:47.111Z,37888
2017-04-10T11:46:59.363Z,64160
2017-04-10T11:48:11.582Z,54688
2017-04-10T11:49:24.131Z,29856
2017-04-10T11:50:36.708Z,27008
2017-04-10T11:51:48.645Z,33920
2017-04-10T11:53:01.173Z,26592
2017-04-10T11:54:12.812Z,30784
2017-04-10T11:55:25.360Z,33824
2017-04-10T11:56:37.905Z,60224
2017-04-10T11:57:50.152Z,36288
2017-04-10T11:59:02.699Z,31488
2017-04-10T12:00:14.984Z,27104
2017-04-10T12:01:27.583Z,27104
2017-04-10T12:02:39.833Z,23904
2017-04-10T12:03:52.386Z,33920
2017-04-10T12:05:04.625Z,26496
2017-04-10T12:06:17.164Z,26400
2017-04-10T12:07:29.726Z,36736
2017-04-10T12:08:42.267Z,23328
2017-04-10T12:09:54.563Z,20608
2017-04-10T12:11:07.103Z,20896
2017-04-10T12:12:19.354Z,18432
2017-04-10T12:13:31.874Z,17376
2017-04-10T12:14:44.396Z,21664
2017-04-10T12:15:56.638Z,27872
2017-04-10T12:17:08.863Z,23936
2017-04-10T12:18:21.400Z,20544
2017-04-10T12:19:33.654Z,22784
2017-04-10T12:20:46.197Z,22208
2017-04-10T12:21:58.122Z,22400
2017-04-10T12:23:10.369Z,20576
2017-04-10T12:24:22.588Z,20192
2017-04-10T12:25:34.858Z,20704
2017-04-10T12:26:47.380Z,20448
2017-04-10T12:27:59.928Z,21440
2017-04-10T12:29:12.171Z,21632
2017-04-10T12:30:24.719Z,23200
2017-04-10T12:31:36.964Z,23488
2017-04-10T12:32:49.506Z,21952
2017-04-10T12:34:02.033Z,20288
2017-04-10T12:35:13.703Z,19776
2017-04-10T12:36:26.240Z,19456
2017-04-10T12:37:39.086Z,16768
2017-04-10T12:38:51.660Z,15324
2017-04-10T12:40:04.210Z,13192
2017-04-10T12:41:16.131Z,12692
2017-04-10T12:42:28.674Z,13576
2017-04-10T12:43:41.210Z,15804
2017-04-10T12:44:53.415Z,16028
2017-04-10T12:46:05.664Z,16912
2017-04-10T12:47:18.209Z,18080
2017-04-10T12:48:30.453Z,18688
2017-04-10T12:49:42.991Z,18976
2017-04-10T12:50:55.546Z,17920
2017-04-10T12:52:07.790Z,18592
2017-04-10T12:53:20.311Z,19488
2017-04-10T12:54:32.835Z,24000
2017-04-10T12:55:45.095Z,24640
2017-04-10T12:56:57.642Z,23072
2017-04-10T12:58:10.174Z,24576
2017-04-10T12:59:22.693Z,23040
2017-04-10T13:00:35.217Z,22688
2017-04-10T13:01:47.761Z,23264
2017-04-10T13:03:00.007Z,25952
2017-04-10T13:04:12.541Z,25408
2017-04-10T13:05:24.821Z,27488
2017-04-10T13:06:37.033Z,29152
2017-04-10T13:07:49.287Z,27936
2017-04-10T13:09:01.833Z,26656
2017-04-10T13:10:14.108Z,26752
2017-04-10T13:11:26.329Z,26528
2017-04-10T13:12:38.875Z,24704
2017-04-10T13:13:51.120Z,20064
2017-04-10T13:15:03.388Z,19712
2017-04-10T13:16:15.939Z,18624
2017-04-10T13:17:28.196Z,18496
2017-04-10T13:18:40.429Z,19680
2017-04-10T13:19:52.996Z,20800
2017-04-10T13:21:05.217Z,23104
2017-04-10T13:22:17.760Z,22944
2017-04-10T13:23:30.263Z,22368
2017-04-10T13:24:42.826Z,23488
2017-04-10T13:25:55.076Z,22752
2017-04-10T13:27:07.618Z,18560
2017-04-10T13:28:20.196Z,18016
2017-04-10T13:29:32.159Z,18496
2017-04-10T13:30:44.431Z,21600
2017-04-10T13:31:56.680Z,19872
2017-04-10T13:33:08.930Z,21344
2017-04-10T13:34:20.598Z,19744
2017-04-10T13:35:32.244Z,18624
2017-04-10T13:36:44.808Z,16720
2017-04-10T13:37:57.030Z,14784
2017-04-10T13:39:09.562Z,13800
2017-04-10T13:40:21.477Z,11988
2017-04-10T13:41:34.015Z,11748
2017-04-10T13:42:45.985Z,13360
2017-04-10T13:43:58.561Z,13708
2017-04-10T13:45:11.110Z,12100
2017-04-10T13:46:23.613Z,10636
2017-04-10T13:47:35.277Z,10796
2017-04-10T13:48:47.529Z,14220
2017-04-10T13:50:00.071Z,15888
2017-04-10T13:51:12.286Z,15556
2017-04-10T13:52:24.227Z,18016
2017-04-10T13:53:36.157Z,19712
2017-04-10T13:54:48.380Z,23552
2017-04-10T13:56:00.624Z,23040
2017-04-10T13:57:12.845Z,20416
2017-04-10T13:58:25.062Z,19520
2017-04-10T13:59:37.608Z,19456
2017-04-10T14:00:49.561Z,18336
2017-04-10T14:02:01.808Z,17340
2017-04-10T14:03:14.041Z,19360
2017-04-10T14:04:26.274Z,15724
2017-04-10T14:05:38.192Z,14752
2017-04-10T14:06:50.142Z,14848
2017-04-10T14:08:02.086Z,14692
2017-04-10T14:09:14.332Z,14000
2017-04-10T14:10:26.275Z,14400
2017-04-10T14:11:38.500Z,14364
2017-04-10T14:12:51.043Z,14436
2017-04-10T14:14:03.563Z,15252
2017-04-10T14:15:15.804Z,15120
2017-04-10T14:16:28.359Z,13728
2017-04-10T14:17:40.900Z,13076
2017-04-10T14:18:53.481Z,12628
2017-04-10T14:20:06.035Z,13832
2017-04-10T14:21:18.631Z,15788
2017-04-10T14:22:31.177Z,14152
2017-04-10T14:23:43.730Z,12320
2017-04-10T14:24:55.672Z,12204
2017-04-10T14:26:07.977Z,12976
2017-04-10T14:27:20.217Z,13844
2017-04-10T14:28:32.444Z,12196
2017-04-10T14:29:44.687Z,11648
2017-04-10T14:30:56.906Z,13504
2017-04-10T14:32:09.430Z,12392
2017-04-10T14:33:21.376Z,13180
2017-04-10T14:34:33.622Z,13272
2017-04-10T14:35:46.165Z,12108
2017-04-10T14:36:58.403Z,12268
2017-04-10T14:38:10.624Z,12492
2017-04-10T14:39:23.181Z,11908
2017-04-10T14:40:35.723Z,13032
2017-04-10T14:41:48.248Z,13960
2017-04-10T14:43:00.782Z,15280
2017-04-10T14:44:12.740Z,14136
2017-04-10T14:45:24.990Z,13492
2017-04-10T14:46:37.507Z,11660
2017-04-10T14:47:50.053Z,11968
2017-04-10T14:49:02.598Z,11556
2017-04-10T14:50:15.116Z,10968
2017-04-10T14:51:27.362Z,10996
2017-04-10T14:52:39.892Z,11040
2017-04-10T14:53:52.490Z,9888
2017-04-10T14:55:05.060Z,10784
2017-04-10T14:56:17.616Z,11936
2017-04-10T14:57:30.158Z,11752
2017-04-10T14:58:42.684Z,12608
2017-04-10T14:59:55.236Z,12508
2017-04-10T15:01:07.779Z,12924
2017-04-10T15:02:20.006Z,14204
2017-04-10T15:03:32.546Z,14928
2017-04-10T15:04:44.187Z,14464
2017-04-10T15:05:56.688Z,14832
2017-04-10T15:07:09.218Z,16344
2017-04-10T15:08:21.782Z,14260
2017-04-10T15:09:34.325Z,11148
2017-04-10T15:10:46.878Z,9588
2017-04-10T15:11:59.446Z,10068
2017-04-10T15:13:12.009Z,10872
2017-04-10T15:14:24.237Z,9580
2017-04-10T15:15:36.759Z,12252
2017-04-10T15:16:49.296Z,10652
2017-04-10T15:18:01.865Z,12488
2017-04-10T15:19:14.392Z,11612
2017-04-10T15:20:26.917Z,11348
2017-04-10T15:21:39.463Z,11616
2017-04-10T15:22:52.031Z,8916
2017-04-10T15:24:04.554Z,8180
2017-04-10T15:25:17.118Z,8688
2017-04-10T15:26:29.369Z,9248
2017-04-10T15:27:41.593Z,9624
2017-04-10T15:28:54.160Z,9440
2017-04-10T15:30:06.690Z,10276
2017-04-10T15:31:18.945Z,11320
2017-04-10T15:32:31.473Z,11576
2017-04-10T15:33:43.997Z,9200
2017-04-10T15:34:56.236Z,9732
2017-04-10T15:36:08.789Z,11820
2017-04-10T15:37:21.031Z,13072
2017-04-10T15:38:33.556Z,10776
2017-04-10T15:39:46.078Z,7452
2017-04-10T15:40:58.598Z,5592
2017-04-10T15:42:10.825Z,4460
2017-04-10T15:43:23.361Z,3748
2017-04-10T15:44:35.885Z,3384
2017-04-10T15:45:48.431Z,3180
2017-04-10T15:47:00.977Z,3032
2017-04-10T15:48:13.188Z,2932
2017-04-10T15:49:25.416Z,3008
2017-04-10T15:50:37.962Z,3208
2017-04-10T15:51:50.499Z,3340
2017-04-10T15:53:02.728Z,3496
2017-04-10T15:54:15.252Z,3744
2017-04-10T15:55:27.795Z,4180
2017-04-10T15:56:40.316Z,4712
2017-04-10T15:57:52.853Z,5448
2017-04-10T15:59:05.101Z,6320
2017-04-10T16:00:17.333Z,7144
2017-04-10T16:01:29.918Z,8156
2017-04-10T16:02:42.446Z,8688
2017-04-10T16:03:54.988Z,8620
2017-04-10T16:05:07.533Z,8320
2017-04-10T16:06:20.083Z,7916
2017-04-10T16:07:32.605Z,7796
2017-04-10T16:08:45.150Z,8208
2017-04-10T16:09:57.676Z,8724
2017-04-10T16:11:10.192Z,9128
2017-04-10T16:12:22.412Z,9552